Time;durP1;ratioP1;P1;durP2;ratioP2;P2;SDS_P1;SDS_P2;PMS_P1;PMS_P2;Temp;Humidity;BMP_temperature;BMP_pressure;BME280_temperature;BME280_humidity;BME280_pressure;Samples;Min_cycle;Max_cycle;Signal;HPM_P1;HPM_P2
2023/07/19 00:02:36;;;;;;;5.87;3.63;;;19.30;99.90;;;;;;4999524;28;20450;-68
2023/07/19 00:05:23;;;;;;;4.67;3.30;;;19.20;99.90;;;;;;5003322;28;20445;-68
2023/07/19 00:08:09;;;;;;;5.67;3.60;;;18.90;99.90;;;;;;5008262;28;20513;-68
2023/07/19 00:10:54;;;;;;;7.23;3.80;;;18.90;99.90;;;;;;5003367;28;20560;-69
2023/07/19 00:13:40;;;;;;;10.20;5.47;;;18.80;99.90;;;;;;5000650;28;20426;-69
2023/07/19 00:16:25;;;;;;;10.13;3.20;;;18.80;99.90;;;;;;4998658;28;20417;-67
2023/07/19 00:19:11;;;;;;;4.85;3.25;;;18.80;99.90;;;;;;5001895;28;20847;-68
2023/07/19 00:21:58;;;;;;;7.13;4.43;;;18.80;99.90;;;;;;4993129;28;20439;-68
2023/07/19 00:24:43;;;;;;;5.93;3.47;;;18.70;99.90;;;;;;4998711;28;20503;-68
2023/07/19 00:27:29;;;;;;;4.87;3.57;;;18.60;99.90;;;;;;5006926;28;20456;-68
2023/07/19 00:30:15;;;;;;;7.53;3.80;;;18.60;99.90;;;;;;5011064;28;20436;-69
2023/07/19 00:33:00;;;;;;;6.80;3.60;;;18.60;99.90;;;;;;5003170;28;20445;-68
2023/07/19 00:35:46;;;;;;;6.70;3.90;;;18.60;99.90;;;;;;5005838;28;20466;-68
2023/07/19 00:38:32;;;;;;;8.50;3.07;;;18.60;99.90;;;;;;5008518;28;20465;-69
2023/07/19 00:41:18;;;;;;;5.97;3.37;;;18.60;99.90;;;;;;5006772;28;20478;-69
2023/07/19 00:44:04;;;;;;;5.77;4.00;;;18.60;99.90;;;;;;5006536;28;20470;-70
2023/07/19 00:46:49;;;;;;;7.47;3.10;;;18.60;99.90;;;;;;5004501;28;20431;-69
2023/07/19 00:49:37;;;;;;;7.90;3.37;;;18.70;99.90;;;;;;5013405;28;20494;-70
2023/07/19 00:52:23;;;;;;;5.20;3.70;;;18.70;99.90;;;;;;5013428;28;20824;-70
2023/07/19 00:55:10;;;;;;;5.13;3.33;;;18.70;99.90;;;;;;5014821;28;20951;-69
2023/07/19 00:57:56;;;;;;;5.43;3.40;;;18.60;99.90;;;;;;5007890;28;21230;-69
2023/07/19 01:00:41;;;;;;;16.03;3.17;;;18.50;99.90;;;;;;5013926;28;21240;-68
2023/07/19 01:03:26;;;;;;;6.57;3.70;;;18.40;99.90;;;;;;5009307;28;20482;-68
2023/07/19 01:06:12;;;;;;;10.80;3.57;;;18.30;99.90;;;;;;5007658;28;20442;-69
2023/07/19 01:08:58;;;;;;;6.17;4.00;;;18.20;99.90;;;;;;5005732;28;20445;-69
2023/07/19 01:11:45;;;;;;;9.30;3.77;;;18.10;99.90;;;;;;5007686;28;20412;-69
2023/07/19 01:14:30;;;;;;;6.87;3.03;;;18.10;99.90;;;;;;5013149;28;20556;-70
2023/07/19 01:17:16;;;;;;;10.63;4.13;;;18.10;99.90;;;;;;5015645;28;20802;-69
2023/07/19 01:20:01;;;;;;;8.17;3.67;;;18.00;99.90;;;;;;5006224;28;20580;-68
2023/07/19 01:22:48;;;;;;;8.00;3.47;;;18.10;99.90;;;;;;5007322;28;20981;-69
2023/07/19 01:25:34;;;;;;;5.70;3.83;;;18.10;99.90;;;;;;5011823;28;20512;-69
2023/07/19 01:28:19;;;;;;;6.10;3.90;;;18.10;99.90;;;;;;5003457;28;20495;-69
2023/07/19 01:31:06;;;;;;;7.47;4.80;;;18.10;99.90;;;;;;5011573;28;20562;-69
2023/07/19 01:33:51;;;;;;;10.73;4.33;;;18.10;99.90;;;;;;5020461;28;20440;-69
2023/07/19 01:36:36;;;;;;;6.00;4.23;;;18.00;99.90;;;;;;5004658;28;20446;-70
2023/07/19 01:39:23;;;;;;;7.57;4.23;;;18.00;99.90;;;;;;5004727;28;20571;-68
2023/07/19 01:42:09;;;;;;;5.13;3.50;;;17.90;99.90;;;;;;5011398;28;20445;-69
2023/07/19 01:44:55;;;;;;;6.67;3.57;;;17.80;99.90;;;;;;5009664;28;20446;-69
2023/07/19 01:47:40;;;;;;;7.47;3.13;;;17.80;99.90;;;;;;5007497;28;20450;-68
2023/07/19 01:50:26;;;;;;;6.30;3.80;;;17.80;99.90;;;;;;5018843;28;20855;-68
2023/07/19 01:53:11;;;;;;;8.70;3.83;;;17.80;99.90;;;;;;5014384;28;20954;-69
2023/07/19 01:55:58;;;;;;;4.87;4.00;;;17.90;99.90;;;;;;5014259;28;20516;-69
2023/07/19 01:58:44;;;;;;;8.40;4.57;;;17.90;99.90;;;;;;5013591;28;20449;-69
2023/07/19 02:01:29;;;;;;;7.10;3.57;;;17.90;99.90;;;;;;5010317;28;21042;-69
2023/07/19 02:04:15;;;;;;;6.80;3.73;;;17.90;99.90;;;;;;5013343;28;20417;-68
2023/07/19 02:07:00;;;;;;;7.23;4.00;;;17.80;99.90;;;;;;5008532;28;20424;-68
2023/07/19 02:09:46;;;;;;;5.50;3.50;;;17.90;99.90;;;;;;5024802;22;20493;-73
2023/07/19 02:12:33;;;;;;;6.43;4.10;;;18.00;99.90;;;;;;5029646;28;20463;-73
2023/07/19 02:15:18;;;;;;;5.63;3.60;;;18.10;99.90;;;;;;5025657;28;20441;-73
2023/07/19 02:18:04;;;;;;;4.93;3.50;;;18.10;99.90;;;;;;5029682;28;20462;-73
2023/07/19 02:20:53;;;;;;;6.40;4.20;;;18.00;99.90;;;;;;5030151;28;20459;-73
2023/07/19 02:23:39;;;;;;;5.57;4.30;;;17.90;99.90;;;;;;5022195;28;20466;-73
2023/07/19 02:26:24;;;;;;;7.53;4.10;;;17.70;99.90;;;;;;5028109;28;20449;-73
2023/07/19 02:29:11;;;;;;;8.40;3.80;;;17.50;99.90;;;;;;5021180;28;20463;-73
2023/07/19 02:31:56;;;;;;;8.33;3.97;;;17.60;99.90;;;;;;5027462;28;20444;-73
2023/07/19 02:34:42;;;;;;;8.10;4.03;;;17.60;99.90;;;;;;5028779;28;20477;-73
2023/07/19 02:37:28;;;;;;;5.70;3.43;;;17.60;99.90;;;;;;5023731;28;20422;-73
2023/07/19 02:40:13;;;;;;;6.07;3.90;;;17.60;99.90;;;;;;5023740;28;20501;-73
2023/07/19 02:42:59;;;;;;;4.67;3.33;;;17.60;99.90;;;;;;5023395;28;20457;-73
2023/07/19 02:45:46;;;;;;;5.67;3.33;;;17.50;99.90;;;;;;5019319;28;20441;-73
2023/07/19 02:48:31;;;;;;;7.47;4.43;;;17.40;99.90;;;;;;5024245;28;20913;-73
2023/07/19 02:51:17;;;;;;;6.23;4.27;;;17.40;99.90;;;;;;5024087;28;20592;-73
2023/07/19 02:54:02;;;;;;;5.70;3.93;;;17.40;99.90;;;;;;5027707;28;20802;-73
2023/07/19 02:56:48;;;;;;;9.03;4.30;;;17.40;99.90;;;;;;5027254;28;20453;-73
2023/07/19 02:59:33;;;;;;;8.30;4.20;;;17.50;99.90;;;;;;5018066;28;21053;-73
2023/07/19 03:02:20;;;;;;;5.83;4.20;;;17.60;99.90;;;;;;5028380;28;20480;-73
2023/07/19 03:05:06;;;;;;;22.13;4.63;;;17.60;99.90;;;;;;5026363;28;20460;-73
2023/07/19 03:07:52;;;;;;;11.80;4.57;;;17.60;99.90;;;;;;5027071;28;20449;-73
2023/07/19 03:10:37;;;;;;;6.03;4.07;;;17.50;99.90;;;;;;5022318;28;20468;-73
2023/07/19 03:13:23;;;;;;;7.63;4.10;;;17.50;99.90;;;;;;5025486;28;20953;-73
2023/07/19 03:16:09;;;;;;;9.00;3.57;;;17.40;99.90;;;;;;5018701;28;20449;-73
2023/07/19 03:18:56;;;;;;;6.60;4.23;;;17.30;99.90;;;;;;5025713;28;20801;-73
2023/07/19 03:21:41;;;;;;;8.33;4.10;;;17.20;99.90;;;;;;5023953;28;20490;-73
2023/07/19 03:24:26;;;;;;;6.57;3.83;;;17.10;99.90;;;;;;5025065;28;20828;-73
2023/07/19 03:27:12;;;;;;;7.67;4.20;;;17.10;99.90;;;;;;5019194;28;20453;-74
2023/07/19 03:29:58;;;;;;;8.73;4.30;;;17.10;99.90;;;;;;5029195;28;20516;-73
2023/07/19 03:32:43;;;;;;;7.13;4.10;;;17.10;99.90;;;;;;5021769;28;20419;-73
2023/07/19 03:35:31;;;;;;;7.67;3.90;;;17.10;99.90;;;;;;5025933;28;20825;-73
2023/07/19 03:38:16;;;;;;;5.70;3.80;;;17.20;99.90;;;;;;5028696;28;20854;-73
2023/07/19 03:41:06;;;;;;;6.60;4.50;;;17.30;99.90;;;;;;5020860;28;21079;-73
2023/07/19 03:43:51;;;;;;;5.90;4.57;;;17.40;99.90;;;;;;5026256;28;20469;-72
2023/07/19 03:46:37;;;;;;;6.90;4.10;;;17.30;99.90;;;;;;5025608;28;20465;-73
2023/07/19 03:49:22;;;;;;;7.10;4.70;;;17.20;99.90;;;;;;5028172;28;20535;-73
2023/07/19 03:52:10;;;;;;;5.30;4.10;;;17.20;99.90;;;;;;5021811;28;20467;-73
2023/07/19 03:54:56;;;;;;;5.17;3.93;;;17.00;99.90;;;;;;5018630;28;20445;-73
2023/07/19 03:57:42;;;;;;;6.50;3.93;;;16.90;99.90;;;;;;5027007;28;20473;-73
2023/07/19 04:00:28;;;;;;;6.07;3.97;;;17.00;99.90;;;;;;5028053;28;20460;-73
2023/07/19 04:03:13;;;;;;;8.00;4.47;;;17.00;99.90;;;;;;5030738;28;20444;-73
2023/07/19 04:05:58;;;;;;;7.57;4.67;;;17.00;99.90;;;;;;5026259;28;20518;-73
2023/07/19 04:08:45;;;;;;;6.30;3.90;;;17.00;99.90;;;;;;5021806;28;20490;-73
2023/07/19 04:11:31;;;;;;;5.63;4.27;;;17.00;99.90;;;;;;5023510;28;22097;-73
2023/07/19 04:14:16;;;;;;;7.20;4.00;;;17.00;99.90;;;;;;5026368;28;20447;-73
2023/07/19 04:17:02;;;;;;;11.53;4.77;;;17.00;99.90;;;;;;5021420;28;20454;-73
2023/07/19 04:19:47;;;;;;;6.70;4.00;;;17.10;99.90;;;;;;5020002;28;20464;-73
2023/07/19 04:22:33;;;;;;;5.83;4.10;;;17.10;99.90;;;;;;5025764;28;20547;-73
2023/07/19 04:25:20;;;;;;;7.80;4.40;;;17.20;99.90;;;;;;5027631;28;20560;-73
2023/07/19 04:28:06;;;;;;;5.13;4.00;;;17.20;99.90;;;;;;5019663;28;20448;-73
2023/07/19 04:30:51;;;;;;;5.90;4.43;;;17.30;99.90;;;;;;5024631;28;20465;-73
2023/07/19 04:33:37;;;;;;;6.30;3.40;;;17.20;99.90;;;;;;5019328;28;20925;-73
2023/07/19 04:36:22;;;;;;;7.10;4.37;;;17.20;99.90;;;;;;5021969;28;20927;-73
2023/07/19 04:39:08;;;;;;;6.20;4.50;;;17.10;99.90;;;;;;5022021;28;20449;-73
2023/07/19 04:41:55;;;;;;;6.70;3.87;;;17.10;99.90;;;;;;5026703;28;20516;-73
2023/07/19 04:44:40;;;;;;;6.47;4.20;;;17.20;99.90;;;;;;5029700;28;20540;-73
2023/07/19 04:47:26;;;;;;;10.50;4.30;;;17.40;99.90;;;;;;5022619;28;20457;-73
2023/07/19 04:50:11;;;;;;;7.00;4.90;;;17.40;99.90;;;;;;5029363;28;20450;-73
2023/07/19 04:52:57;;;;;;;6.07;4.50;;;17.50;99.90;;;;;;5023994;28;20793;-72
2023/07/19 04:55:43;;;;;;;8.43;4.00;;;17.60;99.90;;;;;;5023778;28;20577;-73
2023/07/19 04:58:30;;;;;;;13.00;4.50;;;17.60;99.90;;;;;;5022312;28;20471;-73
2023/07/19 05:01:15;;;;;;;8.10;4.90;;;17.60;99.90;;;;;;5025239;28;21321;-73
2023/07/19 05:04:01;;;;;;;8.63;4.13;;;17.70;99.90;;;;;;5023822;28;20456;-73
2023/07/19 05:06:46;;;;;;;6.23;4.23;;;17.90;99.90;;;;;;5020135;28;20444;-73
2023/07/19 05:09:32;;;;;;;8.07;4.50;;;17.90;99.90;;;;;;5024257;28;20990;-73
2023/07/19 05:12:17;;;;;;;8.47;4.77;;;17.90;99.90;;;;;;5020594;28;20449;-73
2023/07/19 05:15:05;;;;;;;5.43;3.97;;;18.00;99.90;;;;;;5024765;28;20460;-73
2023/07/19 05:17:51;;;;;;;6.53;4.30;;;18.10;99.90;;;;;;5025762;28;20445;-73
2023/07/19 05:20:36;;;;;;;8.33;4.53;;;18.20;99.90;;;;;;5027450;28;20438;-73
2023/07/19 05:23:22;;;;;;;6.20;4.60;;;18.30;99.90;;;;;;5023890;28;20449;-73
2023/07/19 05:26:07;;;;;;;5.77;4.13;;;18.40;99.90;;;;;;5027842;28;20475;-73
2023/07/19 05:28:53;;;;;;;8.77;4.83;;;18.50;99.90;;;;;;5033311;28;20455;-73
2023/07/19 05:31:40;;;;;;;9.13;4.30;;;18.60;99.90;;;;;;5024970;28;20813;-73
2023/07/19 05:34:26;;;;;;;7.50;4.50;;;18.70;99.90;;;;;;5030588;28;20424;-73
2023/07/19 05:37:11;;;;;;;7.87;3.70;;;18.80;99.90;;;;;;5029921;28;20983;-73
2023/07/19 05:39:57;;;;;;;6.90;4.40;;;18.90;99.90;;;;;;5027578;28;20997;-73
2023/07/19 05:42:42;;;;;;;9.67;3.70;;;19.00;99.90;;;;;;5016806;28;20465;-73
2023/07/19 05:45:28;;;;;;;6.00;3.93;;;19.10;99.90;;;;;;5024252;28;20816;-73
2023/07/19 05:48:15;;;;;;;6.27;4.50;;;19.10;99.90;;;;;;5032248;28;20511;-73
2023/07/19 05:51:00;;;;;;;6.50;4.20;;;19.20;99.90;;;;;;5028039;28;20469;-73
2023/07/19 05:53:45;;;;;;;6.63;3.97;;;19.30;99.90;;;;;;5035136;28;20494;-73
2023/07/19 05:56:31;;;;;;;12.30;4.63;;;19.40;99.90;;;;;;5027391;28;20855;-73
2023/07/19 05:59:16;;;;;;;6.17;4.63;;;19.50;99.90;;;;;;5022959;28;20499;-73
2023/07/19 06:02:03;;;;;;;7.23;4.47;;;19.60;99.90;;;;;;5025816;28;20492;-73
2023/07/19 06:04:50;;;;;;;22.50;4.83;;;19.70;99.90;;;;;;5026481;28;20500;-73
2023/07/19 06:07:36;;;;;;;15.70;5.00;;;19.80;99.90;;;;;;5031010;28;20940;-73
2023/07/19 06:10:21;;;;;;;5.23;3.90;;;20.00;99.90;;;;;;5022484;28;20451;-73
2023/07/19 06:13:07;;;;;;;7.87;4.20;;;20.10;99.90;;;;;;5024067;28;20441;-73
2023/07/19 06:15:52;;;;;;;13.10;4.90;;;20.20;99.90;;;;;;5025092;28;20469;-73
2023/07/19 06:18:38;;;;;;;13.00;5.80;;;20.30;99.90;;;;;;5024502;28;20923;-73
2023/07/19 06:21:25;;;;;;;8.40;5.50;;;20.40;99.90;;;;;;5023178;28;20480;-73
2023/07/19 06:24:11;;;;;;;10.97;5.80;;;20.50;99.90;;;;;;5022611;28;20527;-73
2023/07/19 06:26:56;;;;;;;15.60;6.87;;;20.70;99.90;;;;;;5024051;28;20444;-73
2023/07/19 06:29:42;;;;;;;21.30;7.33;;;20.80;99.90;;;;;;5029109;28;20436;-73
2023/07/19 06:32:28;;;;;;;12.47;7.40;;;20.90;99.90;;;;;;5030518;28;20805;-73
2023/07/19 06:35:13;;;;;;;11.13;7.53;;;21.00;99.90;;;;;;5031400;28;20501;-73
2023/07/19 06:38:00;;;;;;;7.33;5.87;;;21.20;99.90;;;;;;5029386;28;20465;-73
2023/07/19 06:40:45;;;;;;;12.90;6.50;;;21.40;99.90;;;;;;5025824;28;20464;-73
2023/07/19 06:43:31;;;;;;;10.43;6.90;;;21.50;99.90;;;;;;5024786;28;20476;-73
2023/07/19 06:46:17;;;;;;;9.23;6.43;;;21.60;99.90;;;;;;5027649;28;21052;-73
2023/07/19 06:49:02;;;;;;;9.20;6.33;;;21.60;99.90;;;;;;5027254;28;20441;-73
2023/07/19 06:51:48;;;;;;;8.40;6.90;;;21.60;99.90;;;;;;5023949;28;20507;-73
2023/07/19 06:54:35;;;;;;;10.87;5.50;;;21.60;99.90;;;;;;5026004;28;20588;-73
2023/07/19 06:57:21;;;;;;;8.83;5.33;;;21.70;99.90;;;;;;5026015;28;20452;-73
2023/07/19 07:00:07;;;;;;;16.83;5.83;;;21.80;99.90;;;;;;5018033;28;20465;-73
2023/07/19 07:02:53;;;;;;;14.23;5.30;;;21.80;99.90;;;;;;5027575;28;20581;-73
2023/07/19 07:05:38;;;;;;;13.90;6.37;;;21.90;99.90;;;;;;5019413;28;20543;-73
2023/07/19 07:08:24;;;;;;;8.77;5.77;;;22.00;99.90;;;;;;5027310;28;20531;-72
2023/07/19 07:11:11;;;;;;;11.93;5.30;;;22.20;99.90;;;;;;5022199;28;20484;-73
2023/07/19 07:13:56;;;;;;;9.13;6.33;;;22.30;99.90;;;;;;5029578;28;20449;-73
2023/07/19 07:16:42;;;;;;;10.93;5.17;;;22.30;99.90;;;;;;5022560;28;20444;-73
2023/07/19 07:19:27;;;;;;;10.20;6.00;;;22.30;99.90;;;;;;5021665;28;20811;-73
2023/07/19 07:22:13;;;;;;;10.50;5.83;;;22.40;99.90;;;;;;5018811;28;20472;-73
2023/07/19 07:24:59;;;;;;;14.13;5.90;;;22.50;99.90;;;;;;5028407;28;20527;-73
2023/07/19 07:27:46;;;;;;;12.97;6.77;;;22.60;99.90;;;;;;5023798;28;20532;-73
2023/07/19 07:30:31;;;;;;;16.03;5.33;;;22.70;99.90;;;;;;5024758;28;20997;-73
2023/07/19 07:33:19;;;;;;;14.10;6.47;;;22.80;99.90;;;;;;5018143;28;20584;-73
2023/07/19 07:36:05;;;;;;;11.87;5.03;;;22.90;99.90;;;;;;5022942;28;20444;-73
2023/07/19 07:38:50;;;;;;;6.63;4.27;;;23.00;96.30;;;;;;5026101;28;20437;-73
2023/07/19 07:41:35;;;;;;;10.33;5.30;;;23.00;87.80;;;;;;5021029;28;20669;-73
2023/07/19 07:44:22;;;;;;;10.00;5.60;;;23.10;87.80;;;;;;5030440;28;20580;-73
2023/07/19 07:47:09;;;;;;;7.33;4.87;;;23.10;84.80;;;;;;5024623;28;20963;-74
2023/07/19 07:49:56;;;;;;;7.50;5.13;;;23.20;87.60;;;;;;5020662;28;20442;-73
2023/07/19 07:52:41;;;;;;;6.37;4.43;;;23.30;85.90;;;;;;5021976;28;21155;-73
2023/07/19 07:55:27;;;;;;;10.60;4.47;;;23.40;77.40;;;;;;5020452;28;20449;-73
2023/07/19 07:58:12;;;;;;;11.60;3.93;;;23.40;71.60;;;;;;5029425;28;20440;-74
2023/07/19 08:00:59;;;;;;;8.97;4.70;;;23.60;70.80;;;;;;5025050;28;20469;-73
2023/07/19 08:03:44;;;;;;;7.83;4.53;;;23.60;70.00;;;;;;5024319;28;20476;-73
2023/07/19 08:06:31;;;;;;;11.00;4.93;;;23.70;68.50;;;;;;5023031;28;21026;-73
2023/07/19 08:09:16;;;;;;;9.20;4.93;;;23.80;72.30;;;;;;5022803;28;20506;-73
2023/07/19 08:12:02;;;;;;;9.20;5.07;;;23.90;72.60;;;;;;5023417;28;20415;-73
2023/07/19 08:14:47;;;;;;;7.83;5.47;;;23.90;69.10;;;;;;5020532;28;20517;-73
2023/07/19 08:17:34;;;;;;;7.03;4.50;;;23.90;70.00;;;;;;5022871;28;20449;-73
2023/07/19 08:20:19;;;;;;;11.37;5.20;;;24.00;70.90;;;;;;5024636;28;20519;-73
2023/07/19 08:23:05;;;;;;;11.13;5.67;;;24.00;64.70;;;;;;5022131;28;20472;-73
2023/07/19 08:25:55;;;;;;;12.40;5.60;;;24.10;68.20;;;;;;5019187;28;20834;-73
2023/07/19 08:28:43;;;;;;;8.30;5.10;;;24.20;65.40;;;;;;5024676;28;20419;-72
2023/07/19 08:31:28;;;;;;;7.03;5.33;;;24.30;67.10;;;;;;5019209;28;20477;-73
2023/07/19 08:34:15;;;;;;;16.73;5.20;;;24.30;65.80;;;;;;5028267;28;21098;-72
2023/07/19 08:37:00;;;;;;;10.60;5.43;;;24.50;65.30;;;;;;5026071;28;20444;-73
2023/07/19 08:39:46;;;;;;;12.87;5.00;;;24.60;63.60;;;;;;5020335;28;20789;-73
2023/07/19 08:42:32;;;;;;;20.53;6.30;;;24.60;66.40;;;;;;5018667;28;21017;-73
2023/07/19 08:45:18;;;;;;;10.00;5.20;;;24.60;63.50;;;;;;5021011;28;20442;-73
2023/07/19 08:48:04;;;;;;;7.50;5.30;;;24.70;63.40;;;;;;5021378;28;20443;-73
2023/07/19 08:50:56;;;;;;;6.63;5.07;;;24.70;64.80;;;;;;5026745;28;20447;-72
2023/07/19 08:53:41;;;;;;;22.93;5.63;;;24.70;66.10;;;;;;5023843;28;20441;-73
2023/07/19 08:56:27;;;;;;;10.40;5.40;;;24.70;62.90;;;;;;5030829;28;20444;-73
2023/07/19 08:59:12;;;;;;;9.83;4.67;;;24.70;57.10;;;;;;5029920;28;21057;-73
2023/07/19 09:01:58;;;;;;;9.23;4.63;;;24.80;59.90;;;;;;5024774;28;20459;-73
2023/07/19 09:05:05;;;;;;;6.20;4.63;;;24.80;54.20;;;;;;5035761;28;20957;-73
2023/07/19 09:07:51;;;;;;;7.70;5.03;;;24.90;55.10;;;;;;5019219;28;20472;-73
2023/07/19 09:10:37;;;;;;;17.87;6.13;;;25.00;61.20;;;;;;5023121;28;20474;-73
2023/07/19 09:13:22;;;;;;;6.93;4.27;;;25.00;56.60;;;;;;5028148;28;20800;-73
2023/07/19 09:16:08;;;;;;;7.60;5.30;;;25.00;60.90;;;;;;5032725;28;20828;-74
2023/07/19 09:18:54;;;;;;;7.83;4.50;;;25.10;56.90;;;;;;5029289;28;20455;-73
2023/07/19 09:21:42;;;;;;;7.40;4.60;;;25.20;52.00;;;;;;5031791;28;20871;-73
2023/07/19 09:24:28;;;;;;;7.27;4.83;;;25.30;46.00;;;;;;5029987;28;20498;-74
2023/07/19 09:27:24;;;;;;;7.50;4.90;;;25.40;48.50;;;;;;5036666;28;20961;-72
2023/07/19 09:30:11;;;;;;;10.07;5.27;;;25.50;49.40;;;;;;5025534;28;20473;-73
2023/07/19 09:33:00;;;;;;;12.30;4.57;;;25.60;49.30;;;;;;5028263;28;20519;-72
2023/07/19 09:35:45;;;;;;;8.43;4.27;;;25.70;42.80;;;;;;5024825;28;20820;-73
2023/07/19 09:38:31;;;;;;;7.00;3.67;;;25.70;38.90;;;;;;5025323;28;20468;-73
2023/07/19 09:41:18;;;;;;;11.00;3.83;;;25.70;29.70;;;;;;5023908;28;20984;-73
2023/07/19 09:44:09;;;;;;;6.77;3.30;;;25.70;29.50;;;;;;5025751;28;21024;-74
2023/07/19 09:46:55;;;;;;;4.90;3.47;;;25.80;26.90;;;;;;5024100;28;20445;-73
2023/07/19 09:49:40;;;;;;;7.33;3.67;;;25.90;31.30;;;;;;5028058;28;20441;-73
2023/07/19 09:52:26;;;;;;;8.40;3.93;;;26.00;28.40;;;;;;5028553;28;20445;-73
2023/07/19 09:55:13;;;;;;;8.30;3.67;;;25.90;27.40;;;;;;5024397;28;20573;-73
2023/07/19 09:58:00;;;;;;;7.07;4.20;;;26.00;31.40;;;;;;5029611;28;20449;-73
2023/07/19 10:00:46;;;;;;;8.57;3.70;;;26.10;28.80;;;;;;5018943;28;20473;-73
2023/07/19 10:03:36;;;;;;;5.10;4.03;;;26.30;28.20;;;;;;5025870;28;20557;-73
2023/07/19 10:06:29;;;;;;;9.03;3.60;;;26.40;26.30;;;;;;5025382;28;20529;-73
2023/07/19 10:09:31;;;;;;;7.57;3.87;;;26.40;26.80;;;;;;5029423;28;20538;-73
2023/07/19 10:12:25;;;;;;;4.53;3.50;;;26.50;27.70;;;;;;5022786;28;20521;-73
2023/07/19 10:15:14;;;;;;;9.57;3.93;;;26.60;26.70;;;;;;5028529;28;20663;-72
2023/07/19 10:18:01;;;;;;;10.33;4.77;;;26.70;23.20;;;;;;5020622;28;20446;-72
2023/07/19 10:21:00;;;;;;;7.90;3.80;;;26.80;24.60;;;;;;5022485;28;20478;-72
2023/07/19 10:23:46;;;;;;;11.97;4.53;;;26.80;21.60;;;;;;5018735;28;21114;-71
2023/07/19 10:26:35;;;;;;;20.43;7.57;;;26.90;24.90;;;;;;5025145;28;20448;-71
2023/07/19 10:29:24;;;;;;;6.43;3.10;;;27.00;23.50;;;;;;5020961;28;20440;-71
2023/07/19 10:32:11;;;;;;;17.80;5.67;;;27.10;23.80;;;;;;5023663;28;20784;-71
2023/07/19 10:34:56;;;;;;;21.30;8.27;;;27.10;23.40;;;;;;5023882;28;20610;-71
2023/07/19 10:37:52;;;;;;;6.07;2.90;;;27.30;22.60;;;;;;5023530;28;20438;-71
2023/07/19 10:40:37;;;;;;;12.50;3.57;;;27.40;19.50;;;;;;5025230;28;20602;-72
2023/07/19 10:43:23;;;;;;;7.87;3.10;;;27.50;20.60;;;;;;5031351;28;20474;-72
2023/07/19 10:46:10;;;;;;;14.30;3.40;;;27.60;19.00;;;;;;5026480;28;20507;-71
2023/07/19 10:48:56;;;;;;;12.03;3.83;;;27.70;18.60;;;;;;5024844;28;20819;-71
2023/07/19 10:51:51;;;;;;;8.03;3.40;;;27.80;18.90;;;;;;5022822;28;20463;-71
2023/07/19 10:54:37;;;;;;;8.67;3.27;;;27.80;18.40;;;;;;5022398;28;20492;-71
2023/07/19 10:57:24;;;;;;;5.13;2.50;;;27.90;17.70;;;;;;5014819;28;20644;-72
2023/07/19 11:00:12;;;;;;;4.63;2.67;;;27.80;16.30;;;;;;5027060;28;20473;-71
2023/07/19 11:02:57;;;;;;;7.63;2.80;;;27.80;17.20;;;;;;5028874;28;20475;-71
2023/07/19 11:05:48;;;;;;;8.13;2.60;;;27.80;16.30;;;;;;5021633;28;20511;-71
2023/07/19 11:08:34;;;;;;;12.00;3.23;;;27.70;16.90;;;;;;5019257;28;20972;-71
2023/07/19 11:11:20;;;;;;;9.30;3.47;;;27.70;18.00;;;;;;5025119;28;20504;-71
2023/07/19 11:14:05;;;;;;;9.43;3.10;;;27.60;18.00;;;;;;5024374;28;21010;-71
2023/07/19 11:16:55;;;;;;;7.67;3.10;;;27.40;16.70;;;;;;5023107;28;20451;-71
2023/07/19 11:19:41;;;;;;;5.93;3.07;;;27.40;18.30;;;;;;5026860;28;20463;-71
2023/07/19 11:22:28;;;;;;;6.37;3.20;;;27.50;19.40;;;;;;5022046;28;20637;-71
2023/07/19 11:25:13;;;;;;;5.40;2.83;;;27.70;18.10;;;;;;5017950;28;20441;-71
2023/07/19 11:27:59;;;;;;;5.13;3.07;;;27.80;19.20;;;;;;5025235;28;20440;-71
2023/07/19 11:30:44;;;;;;;5.00;3.03;;;27.90;17.70;;;;;;5023884;28;20464;-71
2023/07/19 11:33:30;;;;;;;5.60;2.90;;;28.00;16.70;;;;;;5026469;28;20806;-71
2023/07/19 11:36:16;;;;;;;5.43;2.50;;;28.00;17.40;;;;;;5024689;28;20461;-71
2023/07/19 11:39:03;;;;;;;6.53;2.97;;;28.20;18.10;;;;;;5020226;28;20464;-71
2023/07/19 11:41:49;;;;;;;5.80;2.80;;;28.30;17.70;;;;;;5018402;28;20879;-71
2023/07/19 11:44:43;;;;;;;7.87;3.40;;;28.30;16.10;;;;;;5016273;28;20483;-71
2023/07/19 11:47:28;;;;;;;4.63;2.77;;;28.40;17.90;;;;;;5021054;28;20443;-72
2023/07/19 11:50:14;;;;;;;6.03;3.33;;;28.40;16.20;;;;;;5019122;28;21021;-73
2023/07/19 11:53:01;;;;;;;11.30;2.70;;;28.50;18.10;;;;;;5018282;28;20485;-72
2023/07/19 11:55:48;;;;;;;10.93;3.00;;;28.70;17.90;;;;;;5023200;28;20538;-72
2023/07/19 11:58:34;;;;;;;8.43;2.77;;;28.70;17.40;;;;;;5018437;28;20443;-72
2023/07/19 12:01:21;;;;;;;4.23;2.80;;;28.60;15.20;;;;;;5022085;28;20472;-72
2023/07/19 12:04:06;;;;;;;9.10;3.30;;;28.40;14.70;;;;;;5024175;28;20619;-72
2023/07/19 12:06:52;;;;;;;7.50;2.57;;;27.90;15.90;;;;;;5029334;28;20444;-72
2023/07/19 12:09:37;;;;;;;8.97;3.10;;;27.80;17.20;;;;;;5022875;28;20446;-71
2023/07/19 12:12:24;;;;;;;5.43;2.47;;;27.60;17.40;;;;;;5024861;28;20463;-71
2023/07/19 12:15:11;;;;;;;6.93;2.47;;;27.50;17.50;;;;;;5029727;28;20582;-71
2023/07/19 12:17:56;;;;;;;7.10;3.03;;;27.50;17.50;;;;;;5025752;28;21039;-72
2023/07/19 12:20:43;;;;;;;5.33;2.57;;;27.60;18.80;;;;;;5022783;28;20457;-72
2023/07/19 12:23:30;;;;;;;6.17;3.10;;;27.70;17.80;;;;;;5026612;28;20475;-71
2023/07/19 12:26:16;;;;;;;5.70;3.30;;;27.70;19.80;;;;;;5019155;28;20455;-71
2023/07/19 12:29:03;;;;;;;10.40;2.90;;;27.60;18.90;;;;;;5030171;28;20456;-71
2023/07/19 12:31:48;;;;;;;4.83;2.77;;;27.50;18.10;;;;;;5024239;28;20595;-71
2023/07/19 12:34:34;;;;;;;6.37;2.60;;;27.30;17.80;;;;;;5017768;28;20526;-71
2023/07/19 12:37:19;;;;;;;5.17;2.60;;;27.20;19.30;;;;;;5015026;28;20500;-71
2023/07/19 12:40:08;;;;;;;6.63;3.07;;;27.10;21.90;;;;;;5027376;28;20459;-71
2023/07/19 12:42:54;;;;;;;8.80;2.77;;;26.90;23.00;;;;;;5023194;28;20450;-71
2023/07/19 12:45:42;;;;;;;11.30;3.07;;;26.70;24.10;;;;;;5026450;28;20471;-71
2023/07/19 12:48:27;;;;;;;4.97;2.77;;;26.50;26.60;;;;;;5020731;28;20925;-71
2023/07/19 12:51:12;;;;;;;4.67;3.27;;;26.20;27.90;;;;;;5015356;28;20520;-71
2023/07/19 12:53:59;;;;;;;6.23;3.10;;;26.10;33.00;;;;;;5023787;28;20441;-71
2023/07/19 12:56:44;;;;;;;10.87;3.40;;;26.10;34.80;;;;;;5022277;28;20583;-71
2023/07/19 12:59:30;;;;;;;5.10;2.93;;;26.20;36.80;;;;;;5023966;28;20916;-71
2023/07/19 13:02:16;;;;;;;4.87;3.23;;;26.60;38.60;;;;;;5024152;28;20434;-71
2023/07/19 13:05:02;;;;;;;6.57;3.03;;;27.00;35.70;;;;;;5025045;28;20584;-71
2023/07/19 13:07:48;;;;;;;7.10;3.50;;;27.20;33.70;;;;;;5018164;28;20591;-71
2023/07/19 13:10:33;;;;;;;8.10;3.00;;;27.40;29.10;;;;;;5021788;28;20530;-71
2023/07/19 13:13:19;;;;;;;5.67;2.73;;;27.60;28.90;;;;;;5021880;28;20970;-71
2023/07/19 13:16:05;;;;;;;7.93;2.80;;;27.50;26.70;;;;;;5021112;28;20812;-71
2023/07/19 13:18:52;;;;;;;6.70;2.80;;;27.50;26.20;;;;;;5023442;28;20812;-71
2023/07/19 13:21:37;;;;;;;6.83;2.70;;;27.50;26.00;;;;;;5020710;28;20510;-71
2023/07/19 13:24:23;;;;;;;7.53;3.30;;;27.60;24.00;;;;;;5019087;28;20611;-72
2023/07/19 13:27:08;;;;;;;7.13;2.70;;;27.70;23.30;;;;;;5021009;28;20446;-72
2023/07/19 13:29:54;;;;;;;6.17;2.50;;;27.90;23.20;;;;;;5021472;28;20475;-71
2023/07/19 13:32:39;;;;;;;3.67;2.57;;;27.90;24.30;;;;;;5023960;28;20476;-72
2023/07/19 13:35:26;;;;;;;4.33;2.50;;;28.10;23.00;;;;;;5028893;28;20505;-72
2023/07/19 13:38:12;;;;;;;8.13;2.30;;;28.30;21.80;;;;;;5027169;28;20511;-71
2023/07/19 13:40:57;;;;;;;8.80;3.20;;;28.40;21.10;;;;;;5025280;28;20467;-72
2023/07/19 13:43:43;;;;;;;6.30;2.47;;;28.60;21.30;;;;;;5024866;28;20476;-71
2023/07/19 13:46:28;;;;;;;5.50;3.00;;;28.60;20.30;;;;;;5026248;28;20931;-71
2023/07/19 13:49:14;;;;;;;3.93;2.70;;;28.70;20.00;;;;;;5029060;28;20513;-71
2023/07/19 13:52:00;;;;;;;5.00;3.23;;;28.80;19.40;;;;;;5028650;28;20578;-71
2023/07/19 13:54:46;;;;;;;6.53;3.20;;;28.70;19.80;;;;;;5025382;28;20445;-71
2023/07/19 13:57:32;;;;;;;8.00;3.23;;;28.80;19.80;;;;;;5024217;28;20562;-71
2023/07/19 14:00:18;;;;;;;8.03;3.60;;;28.70;19.10;;;;;;5038112;28;20470;-72
2023/07/19 14:03:03;;;;;;;12.63;3.77;;;28.50;19.50;;;;;;5029471;28;20454;-71
2023/07/19 14:05:48;;;;;;;5.53;2.83;;;28.40;20.20;;;;;;5022093;28;20455;-71
2023/07/19 14:08:35;;;;;;;5.83;3.07;;;28.50;21.20;;;;;;5022127;28;20451;-73
2023/07/19 14:11:21;;;;;;;8.80;3.87;;;28.50;21.20;;;;;;5045120;22;20502;-84
2023/07/19 14:14:06;;;;;;;6.60;3.70;;;28.30;21.10;;;;;;5044801;28;20528;-85
2023/07/19 14:16:52;;;;;;;5.83;3.60;;;28.10;22.10;;;;;;5035246;28;20452;-85
2023/07/19 14:19:38;;;;;;;8.20;3.23;;;27.90;22.30;;;;;;5024212;28;20518;-85
2023/07/19 14:22:23;;;;;;;10.70;3.20;;;27.70;23.10;;;;;;5038083;28;20442;-85
2023/07/19 14:25:10;;;;;;;11.20;3.27;;;27.50;22.60;;;;;;5029692;28;20490;-85